Time;durP1;ratioP1;P1;durP2;ratioP2;P2;SDS_P1;SDS_P2;PMS_P1;PMS_P2;Temp;Humidity;BMP_temperature;BMP_pressure;BME280_temperature;BME280_humidity;BME280_pressure;Samples;Min_cycle;Max_cycle;Signal;HPM_P1;HPM_P2
2022/09/15 00:01:38;;;;;;;1.90;1.70;;;;;;;17.16;100.00;95499.28;5028872;28;106090;-64
2022/09/15 00:04:06;;;;;;;1.63;1.50;;;;;;;17.10;100.00;95502.41;5028035;28;105934;-64
2022/09/15 00:06:35;;;;;;;1.73;1.47;;;;;;;17.12;100.00;95497.53;5028658;28;101964;-64
2022/09/15 00:09:03;;;;;;;1.87;1.50;;;;;;;17.11;100.00;95506.72;5028797;28;105520;-64
2022/09/15 00:11:32;;;;;;;2.20;1.53;;;;;;;17.04;100.00;95507.16;5028993;28;102631;-64
2022/09/15 00:14:01;;;;;;;2.87;1.43;;;;;;;17.10;100.00;95494.34;5028550;28;101803;-64
2022/09/15 00:16:31;;;;;;;1.80;1.40;;;;;;;17.10;100.00;95499.72;5031452;28;104920;-64
2022/09/15 00:18:59;;;;;;;2.07;1.80;;;;;;;17.06;100.00;95493.41;5029926;28;101761;-64
2022/09/15 00:21:28;;;;;;;4.00;1.60;;;;;;;17.07;100.00;95484.25;5029647;27;103994;-64
2022/09/15 00:23:58;;;;;;;2.73;1.80;;;;;;;17.08;100.00;95488.50;5029079;28;102676;-64
2022/09/15 00:26:27;;;;;;;1.80;1.70;;;;;;;17.10;100.00;95486.28;5028539;28;102099;-64
2022/09/15 00:28:55;;;;;;;2.33;1.77;;;;;;;17.05;100.00;95486.47;5028375;28;105624;-64
2022/09/15 00:31:25;;;;;;;1.40;1.30;;;;;;;17.05;100.00;95491.84;5027795;28;103978;-64
2022/09/15 00:33:55;;;;;;;2.70;1.70;;;;;;;17.09;100.00;95490.09;5028463;28;101939;-64
2022/09/15 00:36:23;;;;;;;3.70;1.90;;;;;;;17.08;100.00;95486.63;5029506;28;103349;-64
2022/09/15 00:38:51;;;;;;;2.53;1.53;;;;;;;17.11;100.00;95479.84;5030906;28;104197;-64
2022/09/15 00:41:22;;;;;;;1.23;1.13;;;;;;;17.09;100.00;95472.09;5029574;28;102277;-64
2022/09/15 00:43:52;;;;;;;2.20;1.40;;;;;;;17.10;100.00;95467.50;5027550;28;105505;-64
2022/09/15 00:46:21;;;;;;;2.90;1.53;;;;;;;17.09;100.00;95464.03;5028362;28;101819;-64
2022/09/15 00:48:54;;;;;;;1.73;1.63;;;;;;;17.12;100.00;95462.63;5028586;28;102540;-64
2022/09/15 00:51:27;;;;;;;1.97;1.30;;;;;;;17.14;100.00;95463.06;5030416;27;103039;-64
2022/09/15 00:53:54;;;;;;;3.57;1.40;;;;;;;17.20;100.00;95462.63;5031593;28;101811;-64
2022/09/15 00:56:23;;;;;;;1.43;1.20;;;;;;;17.23;100.00;95461.97;5032875;28;102857;-64
2022/09/15 00:58:55;;;;;;;3.23;1.50;;;;;;;17.23;100.00;95453.91;5032081;27;102824;-64
2022/09/15 01:01:25;;;;;;;2.10;1.30;;;;;;;17.20;100.00;95451.06;5036234;27;101732;-64
2022/09/15 01:03:52;;;;;;;2.60;1.83;;;;;;;17.23;100.00;95455.84;5030684;28;105985;-64
2022/09/15 01:06:24;;;;;;;2.13;1.53;;;;;;;17.27;100.00;95452.19;5032872;28;101880;-64
2022/09/15 01:08:58;;;;;;;2.50;1.60;;;;;;;17.22;100.00;95443.50;5032623;28;102774;-64
2022/09/15 01:11:27;;;;;;;1.60;1.37;;;;;;;17.21;100.00;95436.53;5032199;28;102652;-64
2022/09/15 01:13:53;;;;;;;2.10;1.33;;;;;;;17.24;100.00;95450.16;5032591;28;101850;-64
2022/09/15 01:16:33;;;;;;;3.17;1.40;;;;;;;17.22;100.00;95446.97;5032625;28;102488;-64
2022/09/15 01:19:22;;;;;;;1.30;1.20;;;;;;;17.24;100.00;95439.41;5031903;28;103121;-64
2022/09/15 01:21:53;;;;;;;2.90;1.40;;;;;;;17.28;100.00;95443.03;5034570;28;102076;-64
2022/09/15 01:24:42;;;;;;;3.53;2.07;;;;;;;17.24;100.00;95444.78;5030340;28;105399;-64
2022/09/15 01:27:20;;;;;;;1.40;1.30;;;;;;;17.26;100.00;95447.13;5032781;28;101996;-64
2022/09/15 01:30:01;;;;;;;1.40;1.30;;;;;;;17.26;100.00;95436.38;5030938;28;105334;-64
2022/09/15 01:35:27;;;;;;;1.83;1.20;;;;;;;17.24;100.00;95431.34;5031019;28;101813;-64
2022/09/15 01:38:01;;;;;;;1.70;1.40;;;;;;;17.20;100.00;95445.69;5032281;28;102278;-64
2022/09/15 01:40:34;;;;;;;1.60;1.30;;;;;;;17.20;100.00;95433.06;5031761;28;103117;-64
2022/09/15 01:43:03;;;;;;;2.13;1.30;;;;;;;17.21;100.00;95448.09;5030621;28;102158;-64
2022/09/15 01:45:34;;;;;;;1.37;1.20;;;;;;;17.27;100.00;95446.06;5034895;28;102389;-64
2022/09/15 01:48:06;;;;;;;2.00;1.30;;;;;;;17.22;100.00;95438.13;5031913;28;101690;-64
2022/09/15 01:50:38;;;;;;;1.43;1.33;;;;;;;17.17;100.00;95436.38;5031648;27;102366;-64
2022/09/15 01:53:11;;;;;;;1.90;1.17;;;;;;;17.12;100.00;95431.16;5031250;28;103170;-64
2022/09/15 01:55:41;;;;;;;2.13;1.30;;;;;;;17.16;100.00;95436.72;5032168;28;101709;-64
2022/09/15 01:58:09;;;;;;;1.30;1.20;;;;;;;17.19;100.00;95426.13;5032154;27;101655;-64
2022/09/15 02:00:41;;;;;;;2.70;1.40;;;;;;;17.22;100.00;95430.84;5031193;28;102772;-64
2022/09/15 02:03:16;;;;;;;2.53;1.37;;;;;;;17.25;100.00;95427.56;5030520;27;101707;-64
2022/09/15 02:05:49;;;;;;;1.30;1.20;;;;;;;17.30;100.00;95423.91;5031763;28;103892;-64
2022/09/15 02:08:27;;;;;;;2.73;1.50;;;;;;;17.29;100.00;95417.75;5033308;28;105402;-64
2022/09/15 02:11:04;;;;;;;1.43;1.20;;;;;;;17.27;100.00;95419.94;5031815;27;102604;-64
2022/09/15 02:13:44;;;;;;;1.97;1.30;;;;;;;17.34;100.00;95420.25;5029699;28;105418;-64
2022/09/15 02:16:18;;;;;;;3.90;1.80;;;;;;;17.35;100.00;95415.69;5029919;28;101919;-64
2022/09/15 02:18:55;;;;;;;2.33;1.57;;;;;;;17.24;100.00;95428.66;5031568;27;104439;-64
2022/09/15 02:21:28;;;;;;;3.63;1.60;;;;;;;17.22;100.00;95422.03;5030944;28;102603;-64
2022/09/15 02:24:02;;;;;;;2.40;1.40;;;;;;;17.30;100.00;95431.97;5030077;28;102263;-64
2022/09/15 02:26:33;;;;;;;3.43;1.50;;;;;;;17.32;100.00;95432.44;5031577;27;102442;-64
2022/09/15 02:29:05;;;;;;;1.97;1.43;;;;;;;17.34;100.00;95435.63;5029556;28;105745;-64
2022/09/15 02:31:36;;;;;;;1.60;1.40;;;;;;;17.30;100.00;95435.47;5033290;28;101912;-64
2022/09/15 02:34:08;;;;;;;1.93;1.40;;;;;;;17.28;100.00;95431.50;5029327;28;105676;-64
2022/09/15 02:36:36;;;;;;;2.63;1.40;;;;;;;17.24;100.00;95422.47;5031301;27;101754;-64
2022/09/15 02:39:09;;;;;;;3.03;1.67;;;;;;;17.23;100.00;95426.28;5029696;28;105909;-64
2022/09/15 02:41:37;;;;;;;2.57;1.60;;;;;;;17.19;100.00;95430.69;5029009;28;105637;-64
2022/09/15 02:44:04;;;;;;;2.23;1.60;;;;;;;17.14;100.00;95436.22;5031308;28;101801;-64
2022/09/15 02:46:33;;;;;;;1.57;1.30;;;;;;;17.11;100.00;95434.16;5029436;28;105372;-64
2022/09/15 02:49:00;;;;;;;3.73;1.70;;;;;;;17.14;100.00;95430.84;5011667;28;105770;-64
2022/09/15 02:51:28;;;;;;;1.83;1.23;;;;;;;17.15;100.00;95435.91;5029336;28;101865;-64
2022/09/15 02:53:55;;;;;;;2.97;1.63;;;;;;;17.10;100.00;95433.38;5033965;28;102852;-64
2022/09/15 02:56:22;;;;;;;3.60;1.70;;;;;;;17.08;100.00;95435.59;5031078;28;101870;-64
2022/09/15 02:58:49;;;;;;;2.80;1.53;;;;;;;17.09;100.00;95433.69;5029573;28;103699;-64
2022/09/15 03:01:16;;;;;;;2.47;1.63;;;;;;;17.08;100.00;95438.28;5028984;28;105429;-64
2022/09/15 03:03:46;;;;;;;3.97;1.87;;;;;;;17.09;100.00;95428.31;5030793;28;101971;-64
2022/09/15 03:06:16;;;;;;;2.63;1.60;;;;;;;17.02;100.00;95433.34;5029040;28;105568;-64
2022/09/15 03:08:45;;;;;;;4.90;2.10;;;;;;;17.03;100.00;95432.25;5030433;27;101743;-64
2022/09/15 03:11:12;;;;;;;2.30;1.70;;;;;;;17.04;100.00;95434.63;5030724;27;101876;-64
2022/09/15 03:13:39;;;;;;;2.33;1.57;;;;;;;17.04;100.00;95431.94;5030369;28;102350;-64
2022/09/15 03:16:11;;;;;;;1.90;1.67;;;;;;;17.04;100.00;95436.50;5032050;28;101922;-64
2022/09/15 03:18:39;;;;;;;1.90;1.70;;;;;;;17.02;100.00;95439.53;5029259;28;105137;-64
2022/09/15 03:21:09;;;;;;;2.47;1.50;;;;;;;16.99;100.00;95437.47;5030091;28;102662;-64
2022/09/15 03:23:36;;;;;;;2.57;1.73;;;;;;;16.98;100.00;95435.88;5030469;28;101715;-64
2022/09/15 03:26:04;;;;;;;2.90;1.30;;;;;;;16.95;100.00;95438.41;5030694;28;102568;-64
2022/09/15 03:28:31;;;;;;;1.60;1.50;;;;;;;16.97;100.00;95430.81;5029908;27;103658;-64
2022/09/15 03:30:59;;;;;;;1.60;1.50;;;;;;;16.99;100.00;95433.97;5030426;28;101887;-64
2022/09/15 03:33:26;;;;;;;2.23;1.87;;;;;;;16.95;100.00;95438.41;5030213;28;102379;-64
2022/09/15 03:35:54;;;;;;;3.03;1.60;;;;;;;16.97;100.00;95422.75;5031926;28;104168;-64
2022/09/15 03:38:23;;;;;;;2.17;1.60;;;;;;;16.95;100.00;95427.66;5028857;28;105200;-64
2022/09/15 03:41:00;;;;;;;2.13;1.50;;;;;;;16.92;100.00;95422.91;5028562;28;105624;-64
2022/09/15 03:43:28;;;;;;;1.50;1.37;;;;;;;16.91;100.00;95416.75;5030554;27;101968;-65
2022/09/15 03:45:55;;;;;;;1.57;1.40;;;;;;;16.86;100.00;95424.97;5030406;28;102514;-64
2022/09/15 03:48:22;;;;;;;1.83;1.50;;;;;;;16.88;100.00;95427.31;5027692;28;105566;-64
2022/09/15 03:50:51;;;;;;;1.50;1.40;;;;;;;16.90;100.00;95417.84;5029839;27;101965;-64
2022/09/15 03:53:22;;;;;;;1.57;1.47;;;;;;;16.90;100.00;95422.44;5023384;28;105585;-63
2022/09/15 03:56:23;;;;;;;2.17;1.53;;;;;;;16.91;100.00;95421.31;5009007;28;102759;-64
2022/09/15 03:58:50;;;;;;;1.53;1.43;;;;;;;16.88;100.00;95413.88;5011805;28;101979;-64
2022/09/15 04:01:18;;;;;;;1.40;1.30;;;;;;;16.87;100.00;95410.44;5009281;28;104152;-64
2022/09/15 04:03:46;;;;;;;3.57;2.20;;;;;;;16.91;100.00;95405.22;5009553;28;101861;-62
2022/09/15 04:06:35;;;;;;;3.23;1.60;;;;;;;16.89;100.00;95407.44;5010109;28;102869;-64
2022/09/15 04:09:03;;;;;;;1.53;1.30;;;;;;;16.90;100.00;95415.16;5008065;28;105784;-64
2022/09/15 04:11:31;;;;;;;1.40;1.30;;;;;;;16.96;100.00;95418.50;5009796;28;101828;-64
2022/09/15 04:13:58;;;;;;;2.43;1.40;;;;;;;16.97;100.00;95395.91;5009940;28;103104;-64
2022/09/15 04:16:26;;;;;;;3.33;2.27;;;;;;;16.87;100.00;95404.25;5009196;28;102561;-64
2022/09/15 04:18:54;;;;;;;1.70;1.60;;;;;;;16.94;100.00;95402.69;5009607;28;101915;-64
2022/09/15 04:21:27;;;;;;;1.70;1.60;;;;;;;16.96;100.00;95410.44;5012565;28;102929;-64
2022/09/15 04:23:54;;;;;;;1.53;1.37;;;;;;;16.85;100.00;95411.84;5009851;28;101739;-64
2022/09/15 04:26:40;;;;;;;2.73;1.50;;;;;;;16.91;100.00;95410.59;5014270;28;105507;-64
2022/09/15 04:29:13;;;;;;;1.70;1.60;;;;;;;16.92;100.00;95415.66;5010995;28;106358;-64
2022/09/15 04:31:41;;;;;;;1.87;1.60;;;;;;;16.93;100.00;95419.09;5013230;28;101752;-63
2022/09/15 04:34:09;;;;;;;1.67;1.53;;;;;;;16.83;100.00;95422.09;5011653;28;104155;-64
2022/09/15 04:37:01;;;;;;;2.13;1.53;;;;;;;16.83;100.00;95412.16;5010910;28;105742;-64
2022/09/15 04:39:28;;;;;;;1.73;1.60;;;;;;;16.83;100.00;95414.03;5012837;28;101878;-64
2022/09/15 04:41:57;;;;;;;1.90;1.60;;;;;;;16.76;100.00;95414.50;5011531;28;105552;-64
2022/09/15 04:44:24;;;;;;;2.00;1.30;;;;;;;16.75;100.00;95412.13;5015627;28;102863;-64
2022/09/15 04:46:57;;;;;;;2.63;1.63;;;;;;;16.81;100.00;95408.19;5012669;28;102327;-64
2022/09/15 04:49:25;;;;;;;4.90;2.00;;;;;;;16.84;100.00;95412.94;5011327;28;104181;-64
2022/09/15 04:51:53;;;;;;;4.30;2.13;;;;;;;16.86;100.00;95413.41;5012753;28;102156;-63
2022/09/15 04:54:20;;;;;;;3.07;1.80;;;;;;;16.86;100.00;95414.22;5012726;28;102371;-63
2022/09/15 04:57:13;;;;;;;1.77;1.67;;;;;;;16.87;100.00;95418.47;5010597;28;105493;-63
2022/09/15 04:59:40;;;;;;;2.73;2.00;;;;;;;16.88;100.00;95420.06;5011650;28;101942;-63
2022/09/15 05:02:07;;;;;;;2.47;1.80;;;;;;;16.88;100.00;95422.75;5011204;28;105143;-63
2022/09/15 05:04:35;;;;;;;1.60;1.50;;;;;;;16.89;100.00;95426.22;5010858;28;105567;-61
2022/09/15 05:07:02;;;;;;;2.13;1.87;;;;;;;16.89;100.00;95429.69;5015032;28;102054;-63
2022/09/15 05:09:29;;;;;;;1.80;1.70;;;;;;;16.91;100.00;95432.06;5012208;28;102555;-63
2022/09/15 05:11:56;;;;;;;4.40;2.00;;;;;;;16.91;100.00;95434.75;5011253;28;101748;-63
2022/09/15 05:14:25;;;;;;;3.13;1.70;;;;;;;16.90;100.00;95430.50;5010973;28;106808;-63
2022/09/15 05:20:18;;;;;;;2.13;1.60;;;;;;;16.88;100.00;95433.50;5011384;28;101952;-63
2022/09/15 05:22:46;;;;;;;2.17;1.97;;;;;;;16.89;100.00;95442.34;5027950;28;105414;-63
2022/09/15 05:25:13;;;;;;;4.10;2.17;;;;;;;16.85;100.00;95449.44;5011717;28;103094;-63
2022/09/15 05:28:24;;;;;;;1.73;1.63;;;;;;;16.84;100.00;95450.53;5014508;28;101923;-63
2022/09/15 05:30:53;;;;;;;2.27;1.70;;;;;;;16.84;100.00;95443.25;5022633;28;105230;-63
2022/09/15 05:33:22;;;;;;;4.03;2.13;;;;;;;16.78;100.00;95443.72;5032335;28;101878;-63
2022/09/15 05:36:22;;;;;;;2.50;1.87;;;;;;;16.82;100.00;95434.75;5032293;28;102497;-63
2022/09/15 05:38:49;;;;;;;1.83;1.73;;;;;;;16.79;100.00;95451.47;5031754;27;102130;-63
2022/09/15 05:41:18;;;;;;;2.70;1.60;;;;;;;16.82;100.00;95444.69;5032290;27;101959;-63
2022/09/15 05:43:46;;;;;;;2.70;1.77;;;;;;;16.83;100.00;95451.63;5032078;28;102554;-63
2022/09/15 05:46:17;;;;;;;3.90;1.80;;;;;;;16.83;100.00;95457.00;5031519;28;102589;-63
2022/09/15 05:48:45;;;;;;;1.77;1.53;;;;;;;16.83;100.00;95449.75;5030446;28;102026;-63
2022/09/15 05:51:54;;;;;;;3.10;1.87;;;;;;;16.85;100.00;95454.81;5034972;28;102579;-63
2022/09/15 05:54:21;;;;;;;1.93;1.83;;;;;;;16.90;100.00;95462.72;5031107;28;101805;-63
2022/09/15 05:57:07;;;;;;;2.53;1.77;;;;;;;16.93;100.00;95465.56;5032114;28;102553;-63
2022/09/15 05:59:34;;;;;;;2.57;1.73;;;;;;;17.00;100.00;95457.84;5030789;28;102672;-63
2022/09/15 06:02:03;;;;;;;1.83;1.30;;;;;;;17.05;100.00;95462.28;5010519;28;102063;-63
2022/09/15 06:04:30;;;;;;;1.43;1.40;;;;;;;17.12;100.00;95465.31;5010618;28;103522;-63
2022/09/15 06:07:11;;;;;;;1.33;1.23;;;;;;;17.17;100.00;95455.19;5012705;28;105648;-63
2022/09/15 06:09:38;;;;;;;3.90;1.43;;;;;;;17.24;100.00;95457.41;5032259;27;101697;-63
2022/09/15 06:12:06;;;;;;;1.37;1.30;;;;;;;17.23;100.00;95455.84;5028166;28;101695;-63
2022/09/15 06:14:32;;;;;;;1.70;1.60;;;;;;;17.24;100.00;95446.66;5014544;28;102641;-63
2022/09/15 06:17:16;;;;;;;1.63;1.50;;;;;;;17.22;100.00;95452.34;5010516;28;105415;-63
2022/09/15 06:23:06;;;;;;;1.93;1.40;;;;;;;17.40;100.00;95445.13;5011929;28;101721;-63
2022/09/15 06:26:13;;;;;;;1.83;1.30;;;;;;;17.36;100.00;95444.13;5015997;28;105659;-63
2022/09/15 06:28:42;;;;;;;2.43;1.47;;;;;;;17.44;100.00;95446.09;5015131;28;103203;-63
2022/09/15 06:31:11;;;;;;;1.50;1.40;;;;;;;17.45;100.00;95453.81;5011502;28;101867;-63
2022/09/15 06:33:42;;;;;;;2.77;1.57;;;;;;;17.46;100.00;95458.09;5010047;28;106531;-63
2022/09/15 06:36:09;;;;;;;1.97;1.77;;;;;;;17.49;100.00;95456.69;5020445;28;105306;-63
2022/09/15 06:38:36;;;;;;;1.70;1.60;;;;;;;17.48;100.00;95463.16;5035018;27;101739;-63
2022/09/15 06:41:04;;;;;;;1.67;1.57;;;;;;;17.52;100.00;95466.78;5030732;28;102944;-63
2022/09/15 06:43:32;;;;;;;1.73;1.63;;;;;;;17.52;100.00;95464.91;5029597;28;102077;-63
2022/09/15 06:46:04;;;;;;;2.13;1.80;;;;;;;17.60;100.00;95457.97;5023939;28;105261;-63
2022/09/15 06:48:32;;;;;;;1.80;1.70;;;;;;;17.65;100.00;95465.88;5027976;28;105705;-64
2022/09/15 06:51:18;;;;;;;2.30;1.70;;;;;;;17.72;100.00;95474.25;5023245;27;101772;-64
2022/09/15 06:53:45;;;;;;;3.50;1.90;;;;;;;17.61;100.00;95484.50;5025523;28;104797;-64
2022/09/15 06:56:19;;;;;;;3.53;1.50;;;;;;;17.75;100.00;95470.91;5015772;28;105943;-64
2022/09/15 06:58:48;;;;;;;1.97;1.57;;;;;;;17.90;100.00;95473.09;5025262;28;101831;-64
2022/09/15 07:01:20;;;;;;;2.03;1.60;;;;;;;17.98;100.00;95475.00;5030005;28;104056;-63
2022/09/15 07:03:47;;;;;;;1.63;1.30;;;;;;;18.24;100.00;95470.34;5026038;28;101990;-64
2022/09/15 07:06:39;;;;;;;2.77;1.40;;;;;;;18.40;100.00;95463.38;5010094;28;105183;-63
2022/09/15 07:09:06;;;;;;;1.53;1.10;;;;;;;18.55;100.00;95466.38;5010536;28;102841;-63
2022/09/15 07:11:34;;;;;;;5.23;1.00;;;;;;;18.59;100.00;95467.28;5008874;28;102011;-63
2022/09/15 07:14:01;;;;;;;1.53;1.13;;;;;;;18.64;100.00;95467.09;5009656;28;104128;-63
2022/09/15 07:16:39;;;;;;;1.90;1.27;;;;;;;18.58;100.00;95468.41;5023481;28;104392;-63
2022/09/15 07:19:06;;;;;;;1.30;1.20;;;;;;;18.53;100.00;95459.72;5009623;28;101846;-66
2022/09/15 07:21:33;;;;;;;1.53;1.40;;;;;;;18.50;100.00;95463.03;5009014;28;105135;-63
2022/09/15 07:24:02;;;;;;;1.70;1.50;;;;;;;18.46;100.00;95462.91;5011604;28;105549;-64
2022/09/15 07:26:44;;;;;;;1.87;1.30;;;;;;;18.44;100.00;95469.72;5009111;28;105605;-64
2022/09/15 07:29:11;;;;;;;1.83;1.43;;;;;;;18.44;100.00;95477.78;5010247;28;103123;-64
2022/09/15 07:31:38;;;;;;;1.70;1.60;;;;;;;18.39;100.00;95475.25;5010557;28;102065;-64
2022/09/15 07:34:06;;;;;;;1.57;1.43;;;;;;;18.41;100.00;95473.84;5017737;28;106638;-64
2022/09/15 07:36:34;;;;;;;2.77;1.50;;;;;;;18.36;100.00;95470.53;5030054;27;102512;-64
2022/09/15 07:39:03;;;;;;;1.30;1.20;;;;;;;18.29;100.00;95476.38;5030211;27;101808;-64
2022/09/15 07:41:31;;;;;;;2.30;1.10;;;;;;;18.34;100.00;95483.50;5029058;28;104958;-64
2022/09/15 07:44:00;;;;;;;1.10;1.00;;;;;;;18.42;100.00;95471.94;5033230;28;102694;-64
2022/09/15 07:46:45;;;;;;;1.00;1.00;;;;;;;18.49;100.00;95481.13;5014630;28;105617;-64
2022/09/15 07:49:11;;;;;;;1.33;1.00;;;;;;;18.49;100.00;95483.00;5009347;28;102884;-64
2022/09/15 07:51:38;;;;;;;1.93;1.30;;;;;;;18.50;100.00;95481.88;5010373;28;101691;-64
2022/09/15 07:54:07;;;;;;;2.60;1.13;;;;;;;18.47;100.00;95477.16;5008707;28;105088;-63
2022/09/15 07:57:05;;;;;;;2.87;1.10;;;;;;;18.48;100.00;95478.72;5020558;28;103063;-63
2022/09/15 07:59:32;;;;;;;1.50;1.30;;;;;;;18.53;100.00;95481.25;5014536;28;101771;-64
2022/09/15 08:01:59;;;;;;;1.23;1.10;;;;;;;18.62;100.00;95488.19;5012664;28;102444;-65
2022/09/15 08:04:27;;;;;;;1.10;1.00;;;;;;;18.74;100.00;95484.84;5022867;28;103441;-65
2022/09/15 08:10:19;;;;;;;1.20;1.20;;;;;;;19.10;100.00;95471.66;5022055;28;104500;-62
2022/09/15 08:12:46;;;;;;;1.43;1.33;;;;;;;19.39;100.00;95475.13;5013565;28;101921;-61
2022/09/15 08:15:13;;;;;;;1.80;1.07;;;;;;;19.34;100.00;95478.03;5019484;28;102431;-61
2022/09/15 08:17:59;;;;;;;1.60;1.10;;;;;;;19.45;100.00;95475.75;5031738;28;105175;-66
2022/09/15 08:20:32;;;;;;;1.27;1.17;;;;;;;19.52;100.00;95479.47;5033770;27;101721;-71
2022/09/15 08:22:59;;;;;;;1.70;1.10;;;;;;;19.65;100.00;95483.84;5032150;28;105159;-61
2022/09/15 08:25:28;;;;;;;1.30;1.20;;;;;;;19.88;100.00;95478.88;5031608;28;105262;-61
2022/09/15 08:27:55;;;;;;;1.00;1.00;;;;;;;20.12;100.00;95482.50;5026875;28;101949;-60
2022/09/15 08:30:22;;;;;;;1.23;1.00;;;;;;;20.23;100.00;95482.91;5016228;28;102490;-61
2022/09/15 08:32:50;;;;;;;1.40;1.07;;;;;;;20.00;100.00;95481.66;5017095;28;101918;-62
2022/09/15 08:35:18;;;;;;;1.00;1.00;;;;;;;19.98;100.00;95481.19;5033513;28;102837;-63
2022/09/15 08:37:45;;;;;;;1.47;0.90;;;;;;;20.10;100.00;95484.75;5027818;28;105360;-63
2022/09/15 08:40:17;;;;;;;1.50;1.10;;;;;;;20.27;100.00;95484.59;5013256;28;101836;-62
2022/09/15 08:42:49;;;;;;;1.00;1.00;;;;;;;20.47;100.00;95478.34;5030135;28;102853;-63
2022/09/15 08:45:23;;;;;;;2.07;1.10;;;;;;;20.59;100.00;95486.47;5026468;28;105916;-63
2022/09/15 08:47:57;;;;;;;2.07;1.07;;;;;;;20.63;100.00;95479.28;5029615;28;101918;-63
2022/09/15 08:51:02;;;;;;;3.07;1.10;;;;;;;20.67;100.00;95468.59;5011539;28;105790;-63
2022/09/15 08:53:35;;;;;;;1.20;0.97;;;;;;;20.61;100.00;95481.50;5032849;28;103115;-63
2022/09/15 08:56:21;;;;;;;1.07;1.07;;;;;;;20.57;100.00;95471.72;5011644;28;106979;-63
2022/09/15 08:58:49;;;;;;;2.63;1.10;;;;;;;20.60;100.00;95471.06;5012446;28;102659;-63
2022/09/15 09:01:27;;;;;;;1.13;1.00;;;;;;;20.70;100.00;95470.63;5011597;28;102034;-63
2022/09/15 09:04:28;;;;;;;2.17;1.20;;;;;;;20.81;100.00;95466.38;5021504;28;104926;-63
2022/09/15 09:07:23;;;;;;;1.23;1.03;;;;;;;20.97;100.00;95462.69;5012394;28;102489;-63
2022/09/15 09:09:56;;;;;;;1.40;1.00;;;;;;;20.93;100.00;95466.41;5012759;28;102007;-63
2022/09/15 09:12:46;;;;;;;1.00;0.97;;;;;;;21.04;100.00;95454.00;5010966;28;105131;-64
2022/09/15 09:15:27;;;;;;;1.60;0.87;;;;;;;21.09;100.00;95449.16;5014317;28;103355;-63
2022/09/15 09:18:17;;;;;;;1.30;0.93;;;;;;;20.97;100.00;95442.97;5016234;28;101920;-63
2022/09/15 09:21:02;;;;;;;2.83;1.27;;;;;;;21.02;100.00;95448.94;5010957;28;103219;-63
2022/09/15 09:23:32;;;;;;;1.10;1.00;;;;;;;21.20;100.00;95447.56;5011646;28;101992;-63
2022/09/15 09:26:35;;;;;;;1.17;1.03;;;;;;;21.36;100.00;95445.75;5017953;28;103466;-63
2022/09/15 09:29:06;;;;;;;1.10;1.10;;;;;;;21.15;100.00;95447.03;5027490;27;103403;-64
2022/09/15 09:31:36;;;;;;;0.90;0.90;;;;;;;21.26;100.00;95442.72;5032676;27;101710;-63
2022/09/15 09:34:16;;;;;;;2.17;1.27;;;;;;;21.34;100.00;95433.69;5012947;27;103346;-63
2022/09/15 09:37:10;;;;;;;2.27;1.13;;;;;;;21.39;100.00;95438.88;5010530;28;105640;-63
2022/09/15 09:39:37;;;;;;;0.90;0.90;;;;;;;21.42;100.00;95430.84;5012344;28;101901;-63
2022/09/15 09:42:07;;;;;;;1.67;1.17;;;;;;;21.55;100.00;95420.81;5015062;28;102570;-63
2022/09/15 09:44:36;;;;;;;2.53;0.90;;;;;;;21.54;100.00;95417.31;5029460;28;101889;-63
2022/09/15 09:47:11;;;;;;;3.10;0.70;;;;;;;21.57;100.00;95421.25;5032085;27;102297;-63
2022/09/15 09:49:42;;;;;;;1.60;1.00;;;;;;;21.60;100.00;95421.38;5029552;28;105306;-67
2022/09/15 09:52:09;;;;;;;2.27;1.03;;;;;;;21.47;100.00;95429.84;5032072;28;101889;-64
2022/09/15 09:54:36;;;;;;;2.97;0.93;;;;;;;21.41;100.00;95431.22;5014376;28;105019;-63
2022/09/15 09:57:27;;;;;;;1.10;0.93;;;;;;;21.51;100.00;95431.53;5013934;28;105401;-64
2022/09/15 09:59:54;;;;;;;1.00;0.83;;;;;;;21.57;100.00;95438.28;5010772;28;101849;-64
2022/09/15 10:02:25;;;;;;;1.13;0.70;;;;;;;21.42;100.00;95414.63;5015943;28;102802;-64
2022/09/15 10:04:54;;;;;;;1.30;0.80;;;;;;;21.51;100.00;95419.91;5030949;28;102115;-64
2022/09/15 10:07:26;;;;;;;1.33;0.87;;;;;;;21.50;100.00;95412.91;5014701;28;103596;-64
2022/09/15 10:09:59;;;;;;;1.00;0.90;;;;;;;21.64;100.00;95421.47;5009887;28;105853;-64
2022/09/15 10:12:31;;;;;;;2.30;1.10;;;;;;;21.62;100.00;95415.59;5011040;28;101900;-64
2022/09/15 10:15:01;;;;;;;1.70;0.90;;;;;;;21.71;100.00;95411.66;5016957;28;105628;-64
2022/09/15 10:17:40;;;;;;;1.30;1.00;;;;;;;21.66;100.00;95419.19;5030761;27;102630;-64
2022/09/15 10:20:24;;;;;;;1.57;0.80;;;;;;;21.81;100.00;95413.09;5011959;28;101810;-64
2022/09/15 10:22:52;;;;;;;2.70;0.80;;;;;;;21.93;100.00;95413.81;5012510;28;101867;-64
2022/09/15 10:25:38;;;;;;;2.20;1.00;;;;;;;21.85;100.00;95411.28;5019695;28;105214;-64
2022/09/15 10:28:14;;;;;;;1.20;1.00;;;;;;;21.78;100.00;95405.63;5018744;28;105002;-64
2022/09/15 10:30:59;;;;;;;1.20;1.00;;;;;;;21.90;100.00;95402.91;5029012;27;103011;-64
2022/09/15 10:33:29;;;;;;;2.43;1.03;;;;;;;21.82;100.00;95404.63;5029673;28;101995;-64
2022/09/15 10:36:12;;;;;;;1.23;0.90;;;;;;;21.88;100.00;95407.84;5031510;28;101684;-64
2022/09/15 10:38:45;;;;;;;0.70;0.70;;;;;;;21.61;100.00;95408.59;5026041;28;106117;-64
2022/09/15 10:41:23;;;;;;;1.37;1.10;;;;;;;21.90;100.00;95409.09;5029626;28;102016;-64
2022/09/15 10:44:10;;;;;;;2.27;1.00;;;;;;;21.83;100.00;95405.41;5021230;28;105232;-64
2022/09/15 10:50:12;;;;;;;2.00;0.77;;;;;;;21.69;100.00;95400.38;5015168;28;101980;-62
2022/09/15 10:52:56;;;;;;;1.13;0.80;;;;;;;21.59;100.00;95405.47;5016756;28;102591;-63
2022/09/15 10:55:35;;;;;;;1.57;0.90;;;;;;;21.60;100.00;95405.13;5018065;28;102083;-63
2022/09/15 10:58:19;;;;;;;1.43;1.03;;;;;;;21.34;100.00;95410.16;5029350;28;102365;-63
2022/09/15 11:00:55;;;;;;;0.93;0.80;;;;;;;21.47;100.00;95413.63;5029105;28;105502;-64
2022/09/15 11:03:42;;;;;;;2.77;1.17;;;;;;;21.44;100.00;95409.69;5029106;27;101819;-64
2022/09/15 11:06:30;;;;;;;1.67;1.20;;;;;;;21.38;100.00;95418.38;5029643;28;105351;-64
2022/09/15 11:09:14;;;;;;;1.23;1.13;;;;;;;21.51;100.00;95415.28;5028784;28;102819;-63
2022/09/15 11:12:09;;;;;;;1.67;1.13;;;;;;;21.71;100.00;95416.28;5015930;27;101918;-64
2022/09/15 11:14:51;;;;;;;1.53;0.93;;;;;;;21.58;100.00;95399.25;4994142;28;102294;-64
2022/09/15 11:17:34;;;;;;;2.53;1.03;;;;;;;21.59;100.00;95391.94;5009565;28;101905;-64
2022/09/15 11:20:29;;;;;;;1.20;0.90;;;;;;;21.64;100.00;95397.88;5012132;28;102435;-64
2022/09/15 11:23:04;;;;;;;1.43;1.20;;;;;;;21.64;100.00;95391.69;5021993;28;105820;-64
2022/09/15 11:25:40;;;;;;;1.33;1.20;;;;;;;21.74;100.00;95391.25;5009587;28;101881;-64
2022/09/15 11:28:18;;;;;;;2.23;1.10;;;;;;;21.68;100.00;95396.09;5012013;28;102355;-64
2022/09/15 11:30:59;;;;;;;1.13;1.00;;;;;;;21.70;100.00;95396.53;5010490;28;105174;-63
2022/09/15 11:33:32;;;;;;;2.53;1.10;;;;;;;21.79;100.00;95393.72;5029208;28;101786;-63
2022/09/15 11:36:09;;;;;;;2.93;1.27;;;;;;;22.17;100.00;95393.97;5029101;28;105071;-64
2022/09/15 11:38:47;;;;;;;2.13;1.30;;;;;;;22.26;100.00;95386.44;5012085;28;104296;-63
2022/09/15 11:41:19;;;;;;;1.73;1.30;;;;;;;22.08;100.00;95396.03;5010322;28;104025;-64
2022/09/15 11:43:55;;;;;;;1.50;1.17;;;;;;;22.24;100.00;95394.16;5009946;28;102880;-63
2022/09/15 11:47:08;;;;;;;2.17;1.07;;;;;;;22.19;100.00;95394.41;5011639;28;101727;-63
2022/09/15 11:49:42;;;;;;;1.43;1.33;;;;;;;22.08;100.00;95387.91;5013917;28;105101;-63
2022/09/15 11:52:24;;;;;;;1.03;0.93;;;;;;;21.97;100.00;95394.97;5023100;28;103173;-63
2022/09/15 11:54:59;;;;;;;1.13;0.80;;;;;;;22.23;100.00;95390.66;5030651;27;101833;-63
2022/09/15 11:57:51;;;;;;;0.80;0.80;;;;;;;22.31;100.00;95389.72;5014378;28;102597;-63
2022/09/15 12:00:18;;;;;;;2.03;0.77;;;;;;;22.27;100.00;95377.19;5009785;28;102631;-63
2022/09/15 12:02:51;;;;;;;1.73;0.93;;;;;;;22.23;100.00;95381.75;5013199;28;101893;-64